Time;durP1;ratioP1;P1;durP2;ratioP2;P2;SDS_P1;SDS_P2;PMS_P1;PMS_P2;Temp;Humidity;BMP_temperature;BMP_pressure;BME280_temperature;BME280_humidity;BME280_pressure;Samples;Min_cycle;Max_cycle;Signal;HPM_P1;HPM_P2
2021/10/21 00:01:05;;;;;;;3.53;2.57;;;17.60;97.30;;;;;;5096706;28;20603;-78
2021/10/21 00:03:30;;;;;;;3.57;1.70;;;17.60;97.30;;;;;;5115317;28;20174;-77
2021/10/21 00:05:57;;;;;;;3.43;2.23;;;17.70;97.30;;;;;;5096047;28;20480;-77
2021/10/21 00:08:23;;;;;;;1.70;1.50;;;17.70;97.30;;;;;;5096224;28;20205;-78
2021/10/21 00:10:50;;;;;;;3.80;1.50;;;17.70;97.30;;;;;;5096328;28;20820;-78
2021/10/21 00:13:16;;;;;;;2.63;1.70;;;17.70;97.30;;;;;;5113285;28;20506;-78
2021/10/21 00:15:42;;;;;;;3.33;1.77;;;17.60;97.30;;;;;;5095617;28;20849;-77
2021/10/21 00:18:08;;;;;;;2.83;1.93;;;17.60;97.30;;;;;;5095237;28;20412;-78
2021/10/21 00:20:33;;;;;;;2.47;1.77;;;17.50;97.30;;;;;;5095280;28;20483;-77
2021/10/21 00:22:59;;;;;;;1.90;1.70;;;17.50;97.30;;;;;;5095908;28;20182;-76
2021/10/21 00:25:24;;;;;;;4.57;1.93;;;17.40;97.30;;;;;;5095319;28;20573;-78
2021/10/21 00:27:50;;;;;;;2.03;1.60;;;17.40;97.30;;;;;;5095472;28;20227;-78
2021/10/21 00:30:16;;;;;;;3.03;1.80;;;17.30;97.30;;;;;;5095192;28;20178;-76
2021/10/21 00:32:42;;;;;;;2.83;1.90;;;17.20;97.30;;;;;;5095576;28;20662;-76
2021/10/21 00:35:09;;;;;;;1.83;1.60;;;17.20;97.30;;;;;;5094827;28;20282;-77
2021/10/21 00:37:35;;;;;;;2.47;1.90;;;17.10;97.30;;;;;;5095539;28;20427;-78
2021/10/21 00:40:00;;;;;;;2.83;2.10;;;17.00;97.30;;;;;;5098385;28;20441;-79
2021/10/21 00:42:26;;;;;;;2.60;1.97;;;17.00;97.30;;;;;;5099094;28;20181;-78
2021/10/21 00:44:52;;;;;;;3.07;2.00;;;17.00;97.30;;;;;;5117765;28;20197;-78
2021/10/21 00:47:17;;;;;;;1.67;1.67;;;17.00;97.30;;;;;;5100549;28;20627;-79
2021/10/21 00:49:43;;;;;;;3.50;2.03;;;16.90;97.30;;;;;;5099209;28;20178;-79
2021/10/21 00:52:08;;;;;;;5.13;2.30;;;16.90;97.30;;;;;;5095708;28;20234;-79
2021/10/21 00:54:36;;;;;;;2.70;2.13;;;16.90;97.30;;;;;;5096319;28;20285;-81
2021/10/21 00:57:02;;;;;;;3.27;1.97;;;16.80;97.30;;;;;;5096785;28;20184;-81
2021/10/21 00:59:30;;;;;;;2.60;2.10;;;16.80;97.30;;;;;;5095797;28;20423;-81
2021/10/21 01:01:57;;;;;;;3.13;2.27;;;16.80;97.30;;;;;;5095851;28;20418;-79
2021/10/21 01:04:22;;;;;;;4.03;2.60;;;16.80;97.30;;;;;;5096015;28;20494;-79
2021/10/21 01:06:48;;;;;;;4.57;2.43;;;16.80;97.30;;;;;;5096603;28;20957;-80
2021/10/21 01:09:15;;;;;;;5.10;2.50;;;16.80;97.30;;;;;;5080940;28;20178;-81
2021/10/21 01:11:41;;;;;;;3.13;2.27;;;16.90;97.30;;;;;;5080924;28;20178;-80
2021/10/21 01:14:07;;;;;;;4.23;2.40;;;16.90;97.30;;;;;;5080011;28;20433;-78
2021/10/21 01:16:33;;;;;;;2.70;2.37;;;16.90;97.30;;;;;;5080205;28;20412;-80
2021/10/21 01:18:59;;;;;;;4.30;2.53;;;16.90;97.30;;;;;;5078912;28;20275;-83
2021/10/21 01:21:24;;;;;;;4.57;2.37;;;16.90;97.30;;;;;;5078866;28;20208;-78
2021/10/21 01:23:50;;;;;;;2.73;2.47;;;16.90;97.30;;;;;;5080650;28;20871;-80
2021/10/21 01:26:16;;;;;;;2.60;2.00;;;17.00;97.30;;;;;;5099130;28;20167;-79
2021/10/21 01:28:42;;;;;;;3.27;2.27;;;17.10;97.30;;;;;;5079245;28;20179;-79
2021/10/21 01:31:08;;;;;;;3.33;2.20;;;17.10;97.30;;;;;;5078868;28;20171;-79
2021/10/21 01:33:35;;;;;;;11.70;2.47;;;17.10;97.30;;;;;;5098001;28;20918;-79
2021/10/21 01:36:01;;;;;;;4.03;2.00;;;17.00;97.30;;;;;;5097630;28;20222;-80
2021/10/21 01:38:27;;;;;;;3.07;1.97;;;17.00;97.30;;;;;;5097701;28;20420;-78
2021/10/21 01:40:52;;;;;;;2.60;2.07;;;16.80;97.30;;;;;;5098007;28;20467;-78
2021/10/21 01:43:18;;;;;;;3.40;2.00;;;16.80;97.30;;;;;;5080503;28;20188;-79
2021/10/21 01:45:44;;;;;;;3.43;1.87;;;16.80;97.30;;;;;;5084103;28;20225;-77
2021/10/21 01:48:09;;;;;;;1.60;1.60;;;16.80;97.30;;;;;;5079451;28;20229;-78
2021/10/21 01:50:35;;;;;;;4.67;1.43;;;16.80;97.30;;;;;;5096169;28;20175;-78
2021/10/21 01:53:01;;;;;;;2.23;1.80;;;16.80;97.30;;;;;;5096795;28;20214;-80
2021/10/21 01:55:26;;;;;;;2.97;1.33;;;16.80;97.30;;;;;;5077246;28;20202;-78
2021/10/21 01:57:53;;;;;;;1.73;1.50;;;16.80;97.30;;;;;;5081109;28;20307;-79
2021/10/21 02:00:21;;;;;;;1.57;1.50;;;16.80;97.30;;;;;;5095555;28;20209;-79
2021/10/21 02:02:46;;;;;;;2.10;1.37;;;16.80;97.30;;;;;;5080034;28;20479;-78
2021/10/21 02:05:14;;;;;;;2.77;1.40;;;16.70;97.30;;;;;;5097381;28;20467;-79
2021/10/21 02:07:41;;;;;;;2.13;1.20;;;16.70;97.30;;;;;;5091154;28;20651;-78
2021/10/21 02:10:12;;;;;;;1.30;1.13;;;16.70;97.30;;;;;;5099640;28;20424;-81
2021/10/21 02:12:38;;;;;;;1.50;1.33;;;16.70;96.40;;;;;;5101826;28;20467;-80
2021/10/21 02:15:05;;;;;;;2.50;1.03;;;16.70;96.40;;;;;;5097866;28;20432;-78
2021/10/21 02:17:30;;;;;;;3.20;1.40;;;16.60;96.40;;;;;;5094477;28;20184;-77
2021/10/21 02:19:56;;;;;;;1.57;1.20;;;16.60;96.50;;;;;;5094713;28;20415;-76
2021/10/21 02:22:22;;;;;;;1.37;1.20;;;16.60;96.50;;;;;;5094183;28;20174;-78
2021/10/21 02:24:48;;;;;;;1.13;1.07;;;16.60;96.80;;;;;;5093386;28;20293;-76
2021/10/21 02:27:13;;;;;;;2.23;1.20;;;16.60;96.70;;;;;;5111870;28;20330;-76
2021/10/21 02:29:39;;;;;;;1.50;1.07;;;16.60;96.60;;;;;;5110493;28;20912;-77
2021/10/21 02:32:05;;;;;;;1.57;1.20;;;16.60;96.40;;;;;;5073600;28;20228;-78
2021/10/21 02:34:30;;;;;;;1.60;1.40;;;16.60;96.40;;;;;;5073272;28;20437;-77
2021/10/21 02:36:56;;;;;;;1.43;1.20;;;16.60;96.40;;;;;;5073488;28;20182;-75
2021/10/21 02:39:22;;;;;;;5.33;1.50;;;16.60;96.40;;;;;;5091591;28;20182;-77
2021/10/21 02:41:48;;;;;;;1.70;1.60;;;16.60;96.30;;;;;;5077096;28;20197;-78
2021/10/21 02:44:14;;;;;;;1.87;1.27;;;16.70;96.40;;;;;;5077354;28;20194;-75
2021/10/21 02:46:39;;;;;;;1.90;1.23;;;16.70;96.50;;;;;;5077381;28;20543;-79
2021/10/21 02:49:05;;;;;;;1.30;1.30;;;16.70;96.60;;;;;;5076209;28;20185;-75
2021/10/21 02:51:31;;;;;;;3.23;1.17;;;16.70;96.80;;;;;;5075919;28;20171;-75
2021/10/21 02:53:56;;;;;;;2.20;1.20;;;16.70;97.10;;;;;;5075872;28;20274;-75
2021/10/21 02:56:22;;;;;;;1.60;1.30;;;16.70;97.30;;;;;;5093926;28;20678;-75
2021/10/21 02:58:47;;;;;;;2.57;1.40;;;16.70;97.30;;;;;;5094052;28;20170;-74
2021/10/21 03:01:13;;;;;;;1.33;1.20;;;16.70;97.30;;;;;;5093946;28;20221;-76
2021/10/21 03:03:39;;;;;;;3.27;1.43;;;16.60;97.30;;;;;;5075973;28;20698;-76
2021/10/21 03:06:05;;;;;;;1.43;1.30;;;16.70;97.30;;;;;;5094054;28;20505;-75
2021/10/21 03:08:30;;;;;;;2.07;1.30;;;16.70;97.30;;;;;;5093822;28;20206;-76
2021/10/21 03:10:56;;;;;;;2.00;1.20;;;16.70;97.30;;;;;;5075840;28;20179;-75
2021/10/21 03:13:22;;;;;;;1.70;1.20;;;16.70;97.30;;;;;;5094036;28;20746;-76
2021/10/21 03:15:47;;;;;;;1.87;1.30;;;16.60;97.30;;;;;;5075847;28;20201;-75
2021/10/21 03:18:13;;;;;;;2.43;1.77;;;16.60;97.30;;;;;;5093940;28;20714;-76
2021/10/21 03:20:38;;;;;;;2.40;1.50;;;16.60;97.30;;;;;;5075846;28;20545;-76
2021/10/21 03:23:04;;;;;;;2.70;2.23;;;16.60;97.30;;;;;;5094100;28;20170;-75
2021/10/21 03:25:30;;;;;;;1.97;1.63;;;16.60;97.30;;;;;;5093820;28;20214;-76
2021/10/21 03:27:57;;;;;;;1.93;1.00;;;16.60;97.30;;;;;;5093261;28;20189;-76
2021/10/21 03:30:23;;;;;;;6.07;1.60;;;16.50;97.30;;;;;;5075435;28;20408;-76
2021/10/21 03:32:49;;;;;;;3.67;1.60;;;16.50;97.30;;;;;;5075121;28;20776;-76
2021/10/21 03:35:15;;;;;;;1.53;1.27;;;16.60;97.30;;;;;;5075000;28;20190;-74
2021/10/21 03:37:40;;;;;;;1.50;1.40;;;16.50;97.30;;;;;;5093097;28;20978;-75
2021/10/21 03:40:07;;;;;;;1.97;1.30;;;16.50;97.30;;;;;;5075375;28;20174;-75
2021/10/21 03:42:33;;;;;;;1.60;1.50;;;16.50;97.30;;;;;;5075185;28;20183;-75
2021/10/21 03:44:59;;;;;;;5.50;1.50;;;16.40;97.30;;;;;;5074965;28;21121;-76
2021/10/21 03:47:25;;;;;;;4.87;1.97;;;16.40;97.30;;;;;;5093004;28;20190;-75
2021/10/21 03:49:51;;;;;;;1.27;1.20;;;16.40;97.30;;;;;;5092932;28;20640;-75
2021/10/21 03:52:20;;;;;;;2.00;1.90;;;16.30;97.30;;;;;;5092479;28;20456;-75
2021/10/21 03:54:46;;;;;;;1.60;1.50;;;16.30;97.30;;;;;;5074812;28;20302;-77
2021/10/21 03:57:12;;;;;;;3.00;1.40;;;16.30;97.30;;;;;;5092470;28;20412;-79
2021/10/21 03:59:38;;;;;;;1.40;1.30;;;16.30;97.30;;;;;;5074534;28;20448;-73
2021/10/21 04:02:04;;;;;;;4.73;1.60;;;16.20;97.30;;;;;;5074827;28;20185;-74
2021/10/21 04:04:29;;;;;;;2.60;1.67;;;16.20;97.30;;;;;;5092750;28;20201;-75
2021/10/21 04:06:55;;;;;;;1.50;1.43;;;16.20;97.30;;;;;;5074826;28;20216;-74
2021/10/21 04:09:21;;;;;;;1.57;1.30;;;16.20;97.30;;;;;;5074967;28;20179;-74
2021/10/21 04:11:46;;;;;;;8.20;1.47;;;16.20;97.30;;;;;;5092614;28;20257;-74
2021/10/21 04:14:12;;;;;;;2.30;1.50;;;16.20;97.30;;;;;;5074413;28;20194;-76
2021/10/21 04:16:37;;;;;;;1.97;1.60;;;16.10;97.30;;;;;;5074494;28;20182;-75
2021/10/21 04:19:03;;;;;;;2.60;1.67;;;16.10;97.30;;;;;;5074487;28;20218;-75
2021/10/21 04:21:29;;;;;;;1.47;1.47;;;16.10;97.30;;;;;;5092544;28;20284;-75
2021/10/21 04:23:55;;;;;;;1.97;1.40;;;16.10;97.30;;;;;;5092676;28;20198;-75
2021/10/21 04:26:21;;;;;;;1.90;1.47;;;16.10;97.30;;;;;;5074452;28;20541;-75
2021/10/21 04:28:46;;;;;;;2.27;1.60;;;16.10;97.30;;;;;;5092736;28;20416;-75
2021/10/21 04:31:12;;;;;;;2.13;1.40;;;16.00;97.30;;;;;;5092227;28;20413;-75
2021/10/21 04:33:37;;;;;;;2.63;1.73;;;15.90;97.30;;;;;;5074058;28;20171;-75
2021/10/21 04:36:03;;;;;;;2.80;1.70;;;15.80;97.30;;;;;;5074353;28;20548;-76
2021/10/21 04:38:29;;;;;;;1.93;1.83;;;15.70;97.30;;;;;;5074289;28;20213;-76
2021/10/21 04:40:55;;;;;;;1.93;1.63;;;15.60;97.30;;;;;;5092051;28;20535;-76
2021/10/21 04:43:20;;;;;;;2.20;1.53;;;15.50;97.30;;;;;;5073714;28;20171;-75
2021/10/21 04:45:46;;;;;;;4.30;1.73;;;15.40;97.30;;;;;;5092148;28;20716;-76
2021/10/21 04:48:12;;;;;;;2.40;1.80;;;15.30;97.30;;;;;;5073601;28;20225;-76
2021/10/21 04:50:37;;;;;;;2.20;1.87;;;15.30;97.30;;;;;;5091723;28;20175;-75
2021/10/21 04:53:04;;;;;;;2.90;2.00;;;15.20;97.30;;;;;;5091606;28;20259;-75
2021/10/21 04:55:34;;;;;;;1.70;1.60;;;15.10;97.30;;;;;;5091969;28;20920;-76
2021/10/21 04:57:59;;;;;;;2.70;1.67;;;15.10;97.30;;;;;;5092259;28;20458;-75
2021/10/21 05:00:25;;;;;;;1.77;1.60;;;15.00;97.30;;;;;;5073737;28;20518;-75
2021/10/21 05:02:51;;;;;;;2.43;2.00;;;15.00;97.30;;;;;;5091270;28;20182;-76
2021/10/21 05:05:16;;;;;;;4.10;1.97;;;15.00;97.30;;;;;;5073095;28;20293;-76
2021/10/21 05:07:42;;;;;;;3.27;2.27;;;15.00;97.30;;;;;;5073256;28;20198;-75
2021/10/21 05:10:08;;;;;;;2.30;1.40;;;14.90;97.30;;;;;;5091731;28;20171;-78
2021/10/21 05:12:33;;;;;;;4.60;1.93;;;14.90;97.30;;;;;;5073823;28;20186;-76
2021/10/21 05:14:59;;;;;;;3.93;2.33;;;14.90;97.30;;;;;;5091832;28;20926;-76
2021/10/21 05:17:25;;;;;;;2.80;1.70;;;14.90;97.30;;;;;;5091881;28;20530;-76
2021/10/21 05:19:50;;;;;;;8.40;2.37;;;14.90;97.30;;;;;;5073466;28;20174;-78
2021/10/21 05:22:16;;;;;;;2.97;1.77;;;14.80;97.30;;;;;;5075560;28;20261;-79
2021/10/21 05:24:42;;;;;;;3.43;2.17;;;14.40;97.30;;;;;;5075028;28;20198;-78
2021/10/21 05:27:08;;;;;;;3.07;1.60;;;14.00;97.30;;;;;;5075342;28;20239;-79
2021/10/21 05:29:35;;;;;;;4.73;2.50;;;13.40;97.30;;;;;;5073766;28;20774;-77
2021/10/21 05:32:06;;;;;;;3.83;1.70;;;13.10;97.30;;;;;;5093525;28;20405;-79
2021/10/21 05:34:32;;;;;;;3.67;2.00;;;13.00;97.30;;;;;;5073878;28;20523;-79
2021/10/21 05:36:58;;;;;;;4.10;2.20;;;12.90;97.30;;;;;;5074387;28;20444;-77
2021/10/21 05:39:23;;;;;;;4.20;2.80;;;12.80;97.30;;;;;;5075750;28;20466;-77
2021/10/21 05:41:49;;;;;;;10.10;3.87;;;12.90;97.30;;;;;;5090781;28;20179;-77
2021/10/21 05:44:14;;;;;;;3.23;1.10;;;13.00;97.30;;;;;;5090282;28;20419;-76
2021/10/21 05:46:40;;;;;;;8.30;1.30;;;13.10;97.30;;;;;;5090435;28;20232;-78
2021/10/21 05:49:05;;;;;;;2.10;1.30;;;13.10;97.30;;;;;;5092440;28;20170;-76
2021/10/21 05:51:31;;;;;;;2.87;1.40;;;13.30;97.30;;;;;;5090954;28;20520;-80
2021/10/21 05:53:57;;;;;;;1.30;1.20;;;13.40;97.30;;;;;;5111046;28;20217;-80
2021/10/21 05:56:22;;;;;;;1.93;1.10;;;13.50;97.30;;;;;;5093537;28;20193;-77
2021/10/21 05:58:48;;;;;;;2.00;1.20;;;13.50;97.30;;;;;;5093303;28;20253;-77
2021/10/21 06:01:13;;;;;;;5.70;1.60;;;13.60;97.30;;;;;;5111949;28;20641;-77
2021/10/21 06:03:39;;;;;;;2.70;1.40;;;13.80;97.30;;;;;;5093663;28;20176;-80
2021/10/21 06:06:06;;;;;;;2.50;1.40;;;13.90;97.30;;;;;;5093973;28;20185;-77
2021/10/21 06:08:32;;;;;;;7.70;1.53;;;14.00;97.30;;;;;;5076048;28;20210;-78
2021/10/21 06:11:01;;;;;;;3.83;2.37;;;14.00;97.30;;;;;;5073743;28;20407;-80
2021/10/21 06:13:26;;;;;;;3.20;1.50;;;14.00;97.30;;;;;;5074031;28;20413;-80
2021/10/21 06:15:52;;;;;;;4.87;1.63;;;13.90;97.30;;;;;;5075886;28;20442;-78
2021/10/21 06:18:17;;;;;;;4.80;2.03;;;13.90;97.30;;;;;;5077022;28;20170;-77
2021/10/21 06:20:43;;;;;;;4.77;1.40;;;13.90;97.30;;;;;;5076814;28;20166;-79
2021/10/21 06:23:10;;;;;;;1.53;1.50;;;13.90;97.30;;;;;;5076812;28;20177;-78
2021/10/21 06:25:36;;;;;;;4.10;1.53;;;13.90;97.30;;;;;;5076901;28;20933;-78
2021/10/21 06:28:01;;;;;;;2.93;1.53;;;13.90;97.30;;;;;;5076905;28;20444;-77
2021/10/21 06:30:27;;;;;;;4.93;1.50;;;13.80;97.30;;;;;;5076692;28;20182;-76
2021/10/21 06:32:53;;;;;;;1.27;1.13;;;13.80;97.30;;;;;;5076347;28;20179;-79
2021/10/21 06:35:18;;;;;;;2.73;1.40;;;13.80;97.30;;;;;;5076642;28;20562;-78
2021/10/21 06:37:48;;;;;;;3.03;2.00;;;13.80;97.30;;;;;;5076606;28;20175;-76
2021/10/21 06:40:15;;;;;;;2.03;1.17;;;13.90;97.30;;;;;;5076903;28;20174;-76
2021/10/21 06:42:42;;;;;;;3.07;1.30;;;13.90;97.30;;;;;;5076440;28;20415;-79
2021/10/21 06:45:11;;;;;;;1.70;1.30;;;13.90;97.30;;;;;;5076812;28;20436;-77
2021/10/21 06:47:38;;;;;;;4.27;1.20;;;13.90;97.30;;;;;;5076184;28;20462;-80
2021/10/21 06:50:04;;;;;;;3.33;1.40;;;14.00;97.30;;;;;;5076787;28;20914;-78
2021/10/21 06:52:30;;;;;;;63.97;4.40;;;14.00;97.30;;;;;;5086816;28;20451;-76
2021/10/21 06:54:55;;;;;;;3.70;1.37;;;14.00;97.30;;;;;;5075964;28;20523;-77
2021/10/21 06:57:21;;;;;;;2.00;1.30;;;14.10;97.30;;;;;;5076387;28;20289;-79
2021/10/21 06:59:47;;;;;;;1.87;1.60;;;14.10;97.30;;;;;;5075929;28;20529;-77
2021/10/21 07:02:14;;;;;;;1.27;1.00;;;14.10;97.30;;;;;;5075789;28;20611;-78
2021/10/21 07:04:39;;;;;;;2.23;1.20;;;14.10;97.30;;;;;;5075789;28;20198;-79
2021/10/21 07:07:05;;;;;;;1.27;1.00;;;14.20;97.00;;;;;;5080590;28;20988;-78
2021/10/21 07:09:30;;;;;;;2.10;1.10;;;14.20;96.80;;;;;;5095879;28;20623;-78
2021/10/21 07:11:56;;;;;;;2.80;1.30;;;14.20;96.50;;;;;;5096109;28;20230;-75
2021/10/21 07:14:21;;;;;;;2.23;1.00;;;14.30;96.40;;;;;;5095899;28;20205;-76
2021/10/21 07:16:47;;;;;;;1.30;1.03;;;14.30;95.50;;;;;;5095546;28;20185;-77
2021/10/21 07:19:13;;;;;;;3.23;1.20;;;14.50;95.00;;;;;;5114065;28;20653;-78
2021/10/21 07:21:39;;;;;;;2.60;1.20;;;14.60;95.10;;;;;;5114238;28;20540;-79
2021/10/21 07:24:06;;;;;;;2.10;1.10;;;14.70;94.40;;;;;;5095901;28;20432;-76
2021/10/21 07:26:32;;;;;;;5.43;1.30;;;14.70;94.20;;;;;;5109311;28;20277;-78
2021/10/21 07:28:58;;;;;;;1.57;0.90;;;14.80;94.00;;;;;;5095723;28;20482;-79
2021/10/21 07:31:25;;;;;;;3.43;1.30;;;14.80;94.10;;;;;;5095761;28;20165;-78
2021/10/21 07:33:51;;;;;;;1.30;1.07;;;14.90;93.00;;;;;;5113665;28;20193;-76
2021/10/21 07:36:17;;;;;;;4.13;1.00;;;15.00;93.50;;;;;;5114679;28;20411;-77
2021/10/21 07:38:43;;;;;;;1.00;0.93;;;14.90;93.30;;;;;;5114049;28;20207;-78
2021/10/21 07:41:08;;;;;;;2.13;1.10;;;14.90;93.50;;;;;;5113760;28;20408;-78
2021/10/21 07:43:36;;;;;;;3.87;1.53;;;14.80;93.90;;;;;;5097444;28;20170;-77
2021/10/21 07:46:02;;;;;;;1.00;0.90;;;14.80;94.70;;;;;;5115609;28;20239;-78
2021/10/21 07:48:28;;;;;;;2.10;1.03;;;14.80;93.70;;;;;;5112611;28;20507;-78
2021/10/21 07:50:54;;;;;;;4.83;1.07;;;14.90;93.80;;;;;;5096135;28;20929;-76
2021/10/21 07:53:19;;;;;;;3.10;1.10;;;14.90;93.10;;;;;;5108474;28;20647;-76
2021/10/21 07:55:45;;;;;;;4.20;1.00;;;15.00;92.70;;;;;;5093087;28;20604;-78
2021/10/21 07:58:10;;;;;;;2.53;1.00;;;15.00;92.50;;;;;;5093009;28;20227;-77
2021/10/21 08:00:36;;;;;;;2.00;1.27;;;15.00;92.40;;;;;;5108417;28;20177;-77
2021/10/21 08:03:02;;;;;;;7.90;1.50;;;15.00;92.90;;;;;;5093036;28;20245;-78
2021/10/21 08:05:29;;;;;;;3.00;1.20;;;14.90;92.00;;;;;;5108444;28;20199;-77
2021/10/21 08:07:54;;;;;;;3.03;1.67;;;14.80;91.70;;;;;;5108688;28;20467;-76
2021/10/21 08:10:20;;;;;;;3.83;1.10;;;14.80;92.40;;;;;;5076290;28;20410;-77
2021/10/21 08:12:47;;;;;;;2.27;1.40;;;14.80;92.40;;;;;;5077167;28;20810;-77
2021/10/21 08:15:14;;;;;;;2.70;1.10;;;14.80;92.40;;;;;;5076149;28;20427;-78
2021/10/21 08:17:41;;;;;;;1.57;1.10;;;14.90;92.30;;;;;;5094366;28;20436;-77
2021/10/21 08:20:10;;;;;;;5.07;1.40;;;15.00;92.60;;;;;;5076045;28;20937;-76
2021/10/21 08:22:36;;;;;;;1.53;1.37;;;15.00;92.00;;;;;;5076163;28;20515;-77
2021/10/21 08:25:02;;;;;;;5.33;1.47;;;15.00;92.00;;;;;;5076244;28;20479;-76
2021/10/21 08:27:28;;;;;;;2.93;1.00;;;15.00;92.10;;;;;;5075919;28;20209;-77
2021/10/21 08:29:53;;;;;;;8.43;1.17;;;15.10;92.30;;;;;;5092893;28;20405;-75
2021/10/21 08:32:19;;;;;;;2.10;1.07;;;15.10;91.80;;;;;;5074796;28;20651;-79
2021/10/21 08:34:45;;;;;;;1.57;1.20;;;15.10;91.80;;;;;;5070572;28;20669;-78
2021/10/21 08:37:10;;;;;;;2.80;0.90;;;15.00;92.00;;;;;;5054623;28;20179;-76
2021/10/21 08:39:40;;;;;;;3.60;1.00;;;15.00;92.30;;;;;;5054103;28;20179;-77
2021/10/21 08:42:06;;;;;;;5.10;1.27;;;15.00;92.30;;;;;;5072821;28;20180;-78
2021/10/21 08:44:38;;;;;;;2.77;0.90;;;15.00;92.20;;;;;;5073122;28;20487;-77
2021/10/21 08:47:06;;;;;;;2.40;1.00;;;14.90;92.60;;;;;;5054799;28;20457;-76
2021/10/21 08:49:32;;;;;;;9.40;1.23;;;14.90;92.00;;;;;;5087753;28;20474;-75
2021/10/21 08:51:58;;;;;;;4.17;1.10;;;14.90;92.30;;;;;;5053476;28;20530;-74
2021/10/21 08:54:24;;;;;;;2.07;1.07;;;14.90;92.30;;;;;;5073940;28;20428;-75
2021/10/21 08:56:50;;;;;;;2.73;1.40;;;14.90;92.50;;;;;;5074407;28;20228;-77
2021/10/21 08:59:16;;;;;;;1.57;1.20;;;14.90;92.00;;;;;;5074160;28;20420;-75
2021/10/21 09:01:48;;;;;;;2.10;1.20;;;14.90;92.40;;;;;;5073794;28;20178;-76
2021/10/21 09:09:23;;;;;;;45.60;3.27;;;14.80;92.60;;;;;;5092071;28;20404;-76
2021/10/21 09:12:05;;;;;;;2.03;1.10;;;14.80;91.90;;;;;;5092106;28;20385;-76
2021/10/21 09:14:34;;;;;;;2.20;0.93;;;14.90;92.50;;;;;;5073726;28;20428;-75
2021/10/21 09:17:01;;;;;;;2.33;1.03;;;14.80;92.20;;;;;;5073314;28;20517;-76
2021/10/21 09:19:27;;;;;;;76.83;5.53;;;14.80;92.50;;;;;;5091583;28;20487;-75
2021/10/21 09:21:54;;;;;;;3.13;1.20;;;14.80;92.10;;;;;;5073421;28;20419;-76
2021/10/21 09:24:26;;;;;;;1.83;1.20;;;14.80;92.30;;;;;;5073828;28;20573;-76
2021/10/21 09:27:10;;;;;;;2.83;1.00;;;14.90;92.70;;;;;;5073405;28;20483;-77
2021/10/21 09:29:38;;;;;;;1.90;1.33;;;14.90;92.50;;;;;;5073548;28;20412;-76
2021/10/21 09:32:03;;;;;;;4.70;2.10;;;14.90;92.60;;;;;;5072920;28;20554;-76
2021/10/21 09:34:29;;;;;;;35.20;4.43;;;14.90;92.50;;;;;;5073206;28;20493;-76
2021/10/21 09:37:02;;;;;;;36.07;4.50;;;14.90;92.00;;;;;;5090886;28;20529;-78
2021/10/21 09:39:40;;;;;;;1.47;0.90;;;14.90;92.10;;;;;;5091062;28;20167;-76
2021/10/21 09:42:08;;;;;;;2.50;1.10;;;15.00;91.70;;;;;;5073165;28;20486;-76
2021/10/21 09:44:34;;;;;;;2.20;1.00;;;15.00;92.00;;;;;;5073236;28;20433;-78
2021/10/21 09:46:59;;;;;;;1.53;1.00;;;15.00;91.60;;;;;;5091798;28;20455;-75
2021/10/21 09:49:31;;;;;;;1.00;0.90;;;15.00;91.10;;;;;;5073424;28;20170;-78
2021/10/21 09:51:58;;;;;;;23.60;2.10;;;15.00;91.40;;;;;;5078406;28;20233;-77
2021/10/21 09:54:24;;;;;;;4.40;1.30;;;14.90;91.20;;;;;;5078640;28;20424;-77
2021/10/21 09:56:54;;;;;;;2.10;1.43;;;14.80;91.40;;;;;;5092933;28;20424;-77
2021/10/21 09:59:36;;;;;;;1.03;0.90;;;14.70;91.40;;;;;;5078045;28;20408;-77
2021/10/21 10:02:15;;;;;;;2.10;1.00;;;14.60;91.50;;;;;;5096596;28;20825;-78
2021/10/21 10:04:52;;;;;;;1.00;0.90;;;14.60;91.40;;;;;;5078232;28;20788;-78
2021/10/21 10:07:19;;;;;;;3.63;1.03;;;14.50;91.50;;;;;;5101977;28;20963;-76
2021/10/21 10:09:45;;;;;;;1.00;1.00;;;14.40;91.90;;;;;;5098342;28;20415;-76
2021/10/21 10:12:11;;;;;;;4.83;1.50;;;14.40;91.90;;;;;;5097861;28;20419;-76
2021/10/21 10:14:39;;;;;;;2.40;1.00;;;14.40;92.10;;;;;;5116891;28;20268;-78
2021/10/21 10:17:05;;;;;;;4.93;1.30;;;14.30;92.00;;;;;;5116563;28;20469;-76
2021/10/21 10:19:32;;;;;;;2.97;1.27;;;14.40;92.80;;;;;;5098777;28;20419;-79
2021/10/21 10:22:01;;;;;;;4.40;0.80;;;14.40;92.10;;;;;;5116562;28;20565;-79
2021/10/21 10:24:33;;;;;;;25.30;2.10;;;14.40;92.20;;;;;;5098072;28;20995;-75
2021/10/21 10:27:00;;;;;;;27.23;2.80;;;14.40;92.40;;;;;;5097839;28;20447;-76
2021/10/21 10:29:32;;;;;;;2.00;1.00;;;14.30;92.60;;;;;;5116510;28;20415;-78
2021/10/21 10:34:43;;;;;;;;;;;;;;;;;;;;;
2021/10/21 10:37:31;;;;;;;4.50;1.43;;;13.90;94.20;;;;;;5097954;28;20469;-87
2021/10/21 10:40:02;;;;;;;3.13;1.20;;;13.80;94.70;;;;;;5078366;28;20442;-85
2021/10/21 10:42:36;;;;;;;1.10;1.03;;;13.80;94.60;;;;;;5079056;28;20420;-86
2021/10/21 10:45:10;;;;;;;5.07;1.03;;;13.80;94.60;;;;;;5078304;28;20549;-87
2021/10/21 10:47:48;;;;;;;2.60;1.13;;;13.80;94.30;;;;;;5079050;28;20484;-87
2021/10/21 10:50:43;;;;;;;2.43;1.00;;;13.80;94.40;;;;;;5085147;28;20431;-87
2021/10/21 10:53:09;;;;;;;5.77;1.40;;;13.70;94.40;;;;;;5099606;28;20415;-86
2021/10/21 10:55:47;;;;;;;1.30;1.20;;;13.60;94.60;;;;;;5097368;28;20455;-86
2021/10/21 10:58:26;;;;;;;3.20;1.13;;;13.50;93.90;;;;;;5092985;28;20428;-86
2021/10/21 11:00:59;;;;;;;1.87;1.00;;;13.40;93.20;;;;;;5078913;28;20428;-87
2021/10/21 11:03:38;;;;;;;2.13;0.90;;;13.20;94.40;;;;;;5077708;28;20428;-87
2021/10/21 11:06:12;;;;;;;1.50;1.10;;;13.00;97.20;;;;;;5095826;28;20959;-86
2021/10/21 11:08:47;;;;;;;20.53;1.80;;;13.00;97.30;;;;;;5077840;28;20455;-85
2021/10/21 11:11:36;;;;;;;4.03;0.97;;;13.20;96.20;;;;;;5077873;28;20419;-84
2021/10/21 11:14:10;;;;;;;1.03;0.80;;;13.40;95.80;;;;;;5078478;28;21018;-85
2021/10/21 11:16:38;;;;;;;3.20;1.07;;;13.40;95.90;;;;;;5078372;28;20401;-86
2021/10/21 11:19:11;;;;;;;1.00;0.90;;;13.40;95.50;;;;;;5078409;28;20456;-85
2021/10/21 11:21:53;;;;;;;5.50;1.20;;;13.40;95.40;;;;;;5080627;28;20397;-87
2021/10/21 11:24:44;;;;;;;1.10;1.03;;;13.30;95.70;;;;;;5078079;28;20432;-86
2021/10/21 11:27:10;;;;;;;1.93;1.00;;;13.10;95.90;;;;;;5087350;28;20503;-87
2021/10/21 11:29:39;;;;;;;0.90;0.87;;;13.10;96.30;;;;;;5107049;28;20408;-89
2021/10/21 11:32:06;;;;;;;0.83;0.83;;;13.30;96.70;;;;;;5102525;28;20506;-88
2021/10/21 11:34:32;;;;;;;1.50;0.97;;;13.60;96.40;;;;;;5095156;28;20463;-89
2021/10/21 11:36:58;;;;;;;1.10;0.80;;;13.60;95.20;;;;;;5094581;28;20420;-90
2021/10/21 11:39:30;;;;;;;3.70;1.17;;;13.60;95.50;;;;;;5094248;28;20415;-90
2021/10/21 11:41:56;;;;;;;2.20;1.10;;;13.50;95.90;;;;;;5081921;28;20429;-88
2021/10/21 11:44:22;;;;;;;1.83;1.20;;;13.40;96.20;;;;;;5074419;28;20513;-87
2021/10/21 11:46:59;;;;;;;2.87;1.13;;;13.30;95.80;;;;;;5077037;28;20864;-87
2021/10/21 11:49:30;;;;;;;3.20;1.40;;;13.20;95.60;;;;;;5077112;28;20448;-88
2021/10/21 11:52:10;;;;;;;1.30;0.90;;;13.10;95.70;;;;;;5085730;28;20419;-88
2021/10/21 11:54:40;;;;;;;1.43;1.20;;;13.10;95.20;;;;;;5087538;28;20527;-86
2021/10/21 11:57:11;;;;;;;1.93;1.00;;;13.10;95.00;;;;;;5088589;28;21246;-87
2021/10/21 11:59:42;;;;;;;4.23;1.00;;;13.10;95.60;;;;;;5084298;28;20421;-86
2021/10/21 12:02:19;;;;;;;2.73;1.00;;;13.10;95.10;;;;;;5077339;28;20413;-86
2021/10/21 12:04:46;;;;;;;4.83;1.63;;;13.10;95.10;;;;;;5077733;28;20999;-85
2021/10/21 12:07:12;;;;;;;1.93;1.20;;;13.20;94.20;;;;;;5078786;28;20475;-86
2021/10/21 12:09:40;;;;;;;4.40;1.40;;;13.30;93.90;;;;;;5077457;28;20819;-88
2021/10/21 12:12:15;;;;;;;1.90;1.13;;;13.40;94.10;;;;;;5077867;28;20412;-89
2021/10/21 12:14:47;;;;;;;1.40;1.20;;;13.50;92.50;;;;;;5095876;28;20469;-88
2021/10/21 12:17:13;;;;;;;2.10;1.50;;;13.60;91.80;;;;;;5076485;28;20922;-88
2021/10/21 12:19:40;;;;;;;1.83;1.10;;;13.70;90.20;;;;;;5075157;28;20846;-88
2021/10/21 12:22:23;;;;;;;2.33;1.03;;;13.80;90.10;;;;;;5075027;28;20470;-88
2021/10/21 12:24:55;;;;;;;7.67;1.53;;;13.80;88.60;;;;;;5073827;28;20539;-88
2021/10/21 12:27:38;;;;;;;1.73;1.10;;;14.00;87.70;;;;;;5075364;28;20464;-88
2021/10/21 12:33:19;;;;;;;5.60;1.27;;;14.10;86.10;;;;;;5062870;28;20549;-86
2021/10/21 12:36:32;;;;;;;2.03;1.40;;;14.50;85.50;;;;;;5074054;28;20487;-87
2021/10/21 12:39:44;;;;;;;3.23;1.83;;;15.00;84.80;;;;;;5074300;28;20992;-88
2021/10/21 12:42:19;;;;;;;1.83;1.73;;;15.40;83.70;;;;;;5065929;23;20499;-80
2021/10/21 12:44:53;;;;;;;2.80;1.17;;;15.30;83.30;;;;;;5087659;28;20754;-81
2021/10/21 12:47:22;;;;;;;3.27;1.60;;;15.40;83.00;;;;;;5097872;28;20453;-81
2021/10/21 12:49:59;;;;;;;3.00;1.83;;;15.50;82.70;;;;;;5098261;28;21081;-80
2021/10/21 12:52:27;;;;;;;9.23;2.00;;;15.40;82.30;;;;;;5097837;28;20435;-80
2021/10/21 12:55:11;;;;;;;2.37;1.30;;;15.50;81.70;;;;;;5097457;28;20403;-81
2021/10/21 12:57:46;;;;;;;2.03;1.20;;;15.50;81.90;;;;;;5115152;28;20460;-81
2021/10/21 13:00:13;;;;;;;5.03;1.50;;;15.60;81.80;;;;;;5095761;28;20419;-78
2021/10/21 13:02:38;;;;;;;1.20;1.20;;;15.60;81.90;;;;;;5096051;28;20497;-80